sensor_id;sensor_type;location;lat;lon;timestamp;P1;durP1;ratioP1;P2;durP2;ratioP2
56073;SDS011;41950;55.840;37.442;2023-03-18T00:00:22;3.22;;;1.40;;
56073;SDS011;41950;55.840;37.442;2023-03-18T00:02:47;2.85;;;1.17;;
56073;SDS011;41950;55.840;37.442;2023-03-18T00:05:13;3.88;;;1.42;;
56073;SDS011;41950;55.840;37.442;2023-03-18T00:07:40;3.97;;;1.40;;
56073;SDS011;41950;55.840;37.442;2023-03-18T00:10:08;3.97;;;1.30;;
56073;SDS011;41950;55.840;37.442;2023-03-18T00:12:36;3.70;;;1.50;;
56073;SDS011;41950;55.840;37.442;2023-03-18T00:15:04;4.07;;;1.58;;
56073;SDS011;41950;55.840;37.442;2023-03-18T00:17:33;3.72;;;1.50;;
56073;SDS011;41950;55.840;37.442;2023-03-18T00:20:02;2.75;;;1.40;;
56073;SDS011;41950;55.840;37.442;2023-03-18T00:22:32;4.75;;;1.30;;
56073;SDS011;41950;55.840;37.442;2023-03-18T00:25:01;3.97;;;1.20;;
56073;SDS011;41950;55.840;37.442;2023-03-18T00:27:29;4.15;;;1.60;;
56073;SDS011;41950;55.840;37.442;2023-03-18T00:29:55;4.15;;;1.48;;
56073;SDS011;41950;55.840;37.442;2023-03-18T00:32:22;3.92;;;1.30;;
56073;SDS011;41950;55.840;37.442;2023-03-18T00:34:49;6.05;;;1.40;;
56073;SDS011;41950;55.840;37.442;2023-03-18T00:37:16;2.80;;;1.20;;
56073;SDS011;41950;55.840;37.442;2023-03-18T00:39:55;3.25;;;1.35;;
56073;SDS011;41950;55.840;37.442;2023-03-18T00:42:23;5.35;;;1.50;;
56073;SDS011;41950;55.840;37.442;2023-03-18T00:44:49;5.10;;;1.38;;
56073;SDS011;41950;55.840;37.442;2023-03-18T00:47:15;4.03;;;1.55;;
56073;SDS011;41950;55.840;37.442;2023-03-18T00:49:41;2.95;;;1.25;;
56073;SDS011;41950;55.840;37.442;2023-03-18T00:52:07;3.58;;;1.30;;
56073;SDS011;41950;55.840;37.442;2023-03-18T00:54:33;4.18;;;1.35;;
56073;SDS011;41950;55.840;37.442;2023-03-18T00:57:01;4.65;;;1.80;;
56073;SDS011;41950;55.840;37.442;2023-03-18T00:59:29;4.40;;;1.55;;
56073;SDS011;41950;55.840;37.442;2023-03-18T01:01:55;4.72;;;1.70;;
56073;SDS011;41950;55.840;37.442;2023-03-18T01:04:20;4.40;;;1.60;;
56073;SDS011;41950;55.840;37.442;2023-03-18T01:06:47;4.32;;;1.55;;
56073;SDS011;41950;55.840;37.442;2023-03-18T01:09:13;4.45;;;1.50;;
56073;SDS011;41950;55.840;37.442;2023-03-18T01:11:40;3.80;;;1.60;;
56073;SDS011;41950;55.840;37.442;2023-03-18T01:14:07;4.57;;;2.08;;
56073;SDS011;41950;55.840;37.442;2023-03-18T01:16:34;3.63;;;1.77;;
56073;SDS011;41950;55.840;37.442;2023-03-18T01:19:00;4.68;;;1.80;;
56073;SDS011;41950;55.840;37.442;2023-03-18T01:21:26;5.57;;;2.17;;
56073;SDS011;41950;55.840;37.442;2023-03-18T01:23:53;3.60;;;1.88;;
56073;SDS011;41950;55.840;37.442;2023-03-18T01:26:19;4.38;;;1.65;;
56073;SDS011;41950;55.840;37.442;2023-03-18T01:28:44;5.30;;;2.38;;
56073;SDS011;41950;55.840;37.442;2023-03-18T01:31:12;5.53;;;1.70;;
56073;SDS011;41950;55.840;37.442;2023-03-18T01:33:38;5.40;;;1.75;;
56073;SDS011;41950;55.840;37.442;2023-03-18T01:36:04;5.03;;;1.90;;
56073;SDS011;41950;55.840;37.442;2023-03-18T01:38:30;4.30;;;1.77;;
56073;SDS011;41950;55.840;37.442;2023-03-18T01:40:57;4.50;;;1.98;;
56073;SDS011;41950;55.840;37.442;2023-03-18T01:43:27;5.05;;;1.90;;
56073;SDS011;41950;55.840;37.442;2023-03-18T01:45:59;5.63;;;2.00;;
56073;SDS011;41950;55.840;37.442;2023-03-18T01:48:28;4.68;;;1.80;;
56073;SDS011;41950;55.840;37.442;2023-03-18T01:51:03;4.22;;;1.67;;
56073;SDS011;41950;55.840;37.442;2023-03-18T01:53:34;6.75;;;2.40;;
56073;SDS011;41950;55.840;37.442;2023-03-18T01:56:07;4.85;;;1.95;;
56073;SDS011;41950;55.840;37.442;2023-03-18T01:58:35;8.77;;;2.65;;
56073;SDS011;41950;55.840;37.442;2023-03-18T02:01:05;5.10;;;2.20;;
56073;SDS011;41950;55.840;37.442;2023-03-18T02:03:37;4.65;;;2.00;;
56073;SDS011;41950;55.840;37.442;2023-03-18T02:06:05;5.68;;;2.45;;
56073;SDS011;41950;55.840;37.442;2023-03-18T02:08:31;5.82;;;2.50;;
56073;SDS011;41950;55.840;37.442;2023-03-18T02:10:58;6.03;;;2.30;;
56073;SDS011;41950;55.840;37.442;2023-03-18T02:13:28;5.13;;;2.60;;
56073;SDS011;41950;55.840;37.442;2023-03-18T02:15:58;6.22;;;2.63;;
56073;SDS011;41950;55.840;37.442;2023-03-18T02:18:31;6.90;;;2.83;;
56073;SDS011;41950;55.840;37.442;2023-03-18T02:26:52;6.65;;;2.90;;
56073;SDS011;41950;55.840;37.442;2023-03-18T02:29:23;6.65;;;2.60;;
56073;SDS011;41950;55.840;37.442;2023-03-18T02:31:53;5.68;;;2.55;;
56073;SDS011;41950;55.840;37.442;2023-03-18T02:34:19;6.72;;;2.80;;
56073;SDS011;41950;55.840;37.442;2023-03-18T02:36:49;5.55;;;2.22;;
56073;SDS011;41950;55.840;37.442;2023-03-18T02:39:15;6.82;;;2.60;;
56073;SDS011;41950;55.840;37.442;2023-03-18T02:41:41;6.20;;;2.25;;
56073;SDS011;41950;55.840;37.442;2023-03-18T02:44:11;6.85;;;2.75;;
56073;SDS011;41950;55.840;37.442;2023-03-18T02:49:19;5.85;;;2.30;;
56073;SDS011;41950;55.840;37.442;2023-03-18T02:51:49;4.72;;;2.10;;
56073;SDS011;41950;55.840;37.442;2023-03-18T02:54:17;4.32;;;2.25;;
56073;SDS011;41950;55.840;37.442;2023-03-18T02:56:45;6.97;;;2.08;;
56073;SDS011;41950;55.840;37.442;2023-03-18T02:59:11;7.25;;;2.50;;
56073;SDS011;41950;55.840;37.442;2023-03-18T03:01:39;5.40;;;2.30;;
56073;SDS011;41950;55.840;37.442;2023-03-18T03:04:06;5.30;;;2.20;;
56073;SDS011;41950;55.840;37.442;2023-03-18T03:06:33;4.45;;;2.00;;
56073;SDS011;41950;55.840;37.442;2023-03-18T03:09:00;5.00;;;1.90;;
56073;SDS011;41950;55.840;37.442;2023-03-18T03:11:27;5.55;;;2.20;;
56073;SDS011;41950;55.840;37.442;2023-03-18T03:13:53;4.97;;;2.17;;
56073;SDS011;41950;55.840;37.442;2023-03-18T03:16:19;6.07;;;2.00;;
56073;SDS011;41950;55.840;37.442;2023-03-18T03:18:45;5.50;;;1.90;;
56073;SDS011;41950;55.840;37.442;2023-03-18T03:21:12;5.97;;;2.25;;
56073;SDS011;41950;55.840;37.442;2023-03-18T03:23:39;5.03;;;2.08;;
56073;SDS011;41950;55.840;37.442;2023-03-18T03:26:05;6.35;;;2.25;;
56073;SDS011;41950;55.840;37.442;2023-03-18T03:28:31;5.72;;;2.20;;
56073;SDS011;41950;55.840;37.442;2023-03-18T03:30:59;4.78;;;2.10;;
56073;SDS011;41950;55.840;37.442;2023-03-18T03:33:25;4.95;;;2.20;;
56073;SDS011;41950;55.840;37.442;2023-03-18T03:35:52;4.60;;;1.85;;
56073;SDS011;41950;55.840;37.442;2023-03-18T03:38:19;4.53;;;1.77;;
56073;SDS011;41950;55.840;37.442;2023-03-18T03:40:45;3.58;;;1.80;;
56073;SDS011;41950;55.840;37.442;2023-03-18T03:43:12;5.68;;;2.00;;
56073;SDS011;41950;55.840;37.442;2023-03-18T03:45:39;5.47;;;2.50;;
56073;SDS011;41950;55.840;37.442;2023-03-18T03:48:06;5.00;;;2.00;;
56073;SDS011;41950;55.840;37.442;2023-03-18T03:50:33;5.50;;;2.35;;
56073;SDS011;41950;55.840;37.442;2023-03-18T03:53:00;10.38;;;2.20;;
56073;SDS011;41950;55.840;37.442;2023-03-18T03:55:28;5.35;;;2.25;;
56073;SDS011;41950;55.840;37.442;2023-03-18T03:57:53;5.25;;;2.00;;
56073;SDS011;41950;55.840;37.442;2023-03-18T04:00:20;4.28;;;2.00;;
56073;SDS011;41950;55.840;37.442;2023-03-18T04:02:47;5.72;;;1.85;;
56073;SDS011;41950;55.840;37.442;2023-03-18T04:05:15;5.60;;;1.80;;
56073;SDS011;41950;55.840;37.442;2023-03-18T04:07:42;4.72;;;1.60;;
56073;SDS011;41950;55.840;37.442;2023-03-18T04:10:10;6.60;;;1.60;;
56073;SDS011;41950;55.840;37.442;2023-03-18T04:12:38;6.45;;;1.92;;
56073;SDS011;41950;55.840;37.442;2023-03-18T04:15:04;5.95;;;1.70;;
56073;SDS011;41950;55.840;37.442;2023-03-18T04:17:32;6.22;;;1.85;;
56073;SDS011;41950;55.840;37.442;2023-03-18T04:19:59;4.68;;;1.90;;
56073;SDS011;41950;55.840;37.442;2023-03-18T04:22:25;5.07;;;1.92;;
56073;SDS011;41950;55.840;37.442;2023-03-18T04:24:50;3.60;;;1.63;;
56073;SDS011;41950;55.840;37.442;2023-03-18T04:27:16;4.15;;;1.40;;
56073;SDS011;41950;55.840;37.442;2023-03-18T04:29:43;3.88;;;1.70;;
56073;SDS011;41950;55.840;37.442;2023-03-18T04:32:10;4.40;;;1.88;;
56073;SDS011;41950;55.840;37.442;2023-03-18T04:34:36;4.75;;;2.20;;
56073;SDS011;41950;55.840;37.442;2023-03-18T04:37:05;6.38;;;1.92;;
56073;SDS011;41950;55.840;37.442;2023-03-18T04:39:33;3.60;;;1.83;;
56073;SDS011;41950;55.840;37.442;2023-03-18T04:41:58;5.22;;;1.95;;
56073;SDS011;41950;55.840;37.442;2023-03-18T04:44:26;3.33;;;1.60;;
56073;SDS011;41950;55.840;37.442;2023-03-18T04:46:52;5.18;;;1.63;;
56073;SDS011;41950;55.840;37.442;2023-03-18T04:49:18;4.93;;;2.00;;
56073;SDS011;41950;55.840;37.442;2023-03-18T04:51:44;4.13;;;1.75;;
56073;SDS011;41950;55.840;37.442;2023-03-18T04:54:11;3.85;;;1.48;;
56073;SDS011;41950;55.840;37.442;2023-03-18T04:56:37;3.75;;;1.70;;
56073;SDS011;41950;55.840;37.442;2023-03-18T04:59:04;4.22;;;1.45;;
56073;SDS011;41950;55.840;37.442;2023-03-18T05:01:30;5.15;;;1.88;;
56073;SDS011;41950;55.840;37.442;2023-03-18T05:03:56;5.15;;;1.70;;
56073;SDS011;41950;55.840;37.442;2023-03-18T05:06:23;3.58;;;1.65;;
56073;SDS011;41950;55.840;37.442;2023-03-18T05:08:51;4.35;;;1.80;;
56073;SDS011;41950;55.840;37.442;2023-03-18T05:11:17;4.93;;;1.50;;
56073;SDS011;41950;55.840;37.442;2023-03-18T05:13:44;4.18;;;2.03;;
56073;SDS011;41950;55.840;37.442;2023-03-18T05:16:10;4.95;;;2.00;;
56073;SDS011;41950;55.840;37.442;2023-03-18T05:18:36;5.00;;;1.85;;
56073;SDS011;41950;55.840;37.442;2023-03-18T05:21:03;6.40;;;2.03;;
56073;SDS011;41950;55.840;37.442;2023-03-18T05:23:29;5.75;;;1.90;;
56073;SDS011;41950;55.840;37.442;2023-03-18T05:25:57;7.28;;;2.10;;
56073;SDS011;41950;55.840;37.442;2023-03-18T05:28:23;6.18;;;1.90;;
56073;SDS011;41950;55.840;37.442;2023-03-18T05:30:49;6.45;;;1.92;;
56073;SDS011;41950;55.840;37.442;2023-03-18T05:33:15;6.93;;;1.85;;
56073;SDS011;41950;55.840;37.442;2023-03-18T05:35:41;4.13;;;1.75;;
56073;SDS011;41950;55.840;37.442;2023-03-18T05:38:07;5.43;;;2.05;;
56073;SDS011;41950;55.840;37.442;2023-03-18T05:40:33;6.20;;;2.15;;
56073;SDS011;41950;55.840;37.442;2023-03-18T05:43:04;4.53;;;1.73;;
56073;SDS011;41950;55.840;37.442;2023-03-18T05:45:32;5.53;;;2.30;;
56073;SDS011;41950;55.840;37.442;2023-03-18T05:47:58;8.07;;;1.80;;
56073;SDS011;41950;55.840;37.442;2023-03-18T05:50:30;4.50;;;1.70;;
56073;SDS011;41950;55.840;37.442;2023-03-18T05:53:02;5.90;;;2.22;;
56073;SDS011;41950;55.840;37.442;2023-03-18T05:55:30;5.82;;;2.20;;
56073;SDS011;41950;55.840;37.442;2023-03-18T05:57:56;7.18;;;2.17;;
56073;SDS011;41950;55.840;37.442;2023-03-18T06:00:23;5.32;;;1.65;;
56073;SDS011;41950;55.840;37.442;2023-03-18T06:02:50;8.10;;;2.05;;
56073;SDS011;41950;55.840;37.442;2023-03-18T06:05:19;6.72;;;1.90;;
56073;SDS011;41950;55.840;37.442;2023-03-18T06:07:48;5.22;;;2.10;;
56073;SDS011;41950;55.840;37.442;2023-03-18T06:10:15;5.40;;;2.50;;
56073;SDS011;41950;55.840;37.442;2023-03-18T06:12:47;8.55;;;2.00;;
56073;SDS011;41950;55.840;37.442;2023-03-18T06:15:13;7.45;;;2.42;;
56073;SDS011;41950;55.840;37.442;2023-03-18T06:17:45;6.88;;;4.85;;
56073;SDS011;41950;55.840;37.442;2023-03-18T06:20:11;8.75;;;2.55;;
56073;SDS011;41950;55.840;37.442;2023-03-18T06:22:45;6.63;;;2.83;;
56073;SDS011;41950;55.840;37.442;2023-03-18T06:25:15;5.28;;;1.88;;
56073;SDS011;41950;55.840;37.442;2023-03-18T06:27:43;8.02;;;2.38;;
56073;SDS011;41950;55.840;37.442;2023-03-18T06:30:12;6.57;;;2.00;;
56073;SDS011;41950;55.840;37.442;2023-03-18T06:32:40;5.75;;;1.80;;
56073;SDS011;41950;55.840;37.442;2023-03-18T06:35:07;6.18;;;1.90;;
56073;SDS011;41950;55.840;37.442;2023-03-18T06:37:34;3.92;;;1.60;;
56073;SDS011;41950;55.840;37.442;2023-03-18T06:40:00;5.22;;;1.90;;
56073;SDS011;41950;55.840;37.442;2023-03-18T06:42:26;5.72;;;2.15;;
56073;SDS011;41950;55.840;37.442;2023-03-18T06:44:54;6.25;;;2.47;;
56073;SDS011;41950;55.840;37.442;2023-03-18T06:47:21;6.50;;;2.35;;
56073;SDS011;41950;55.840;37.442;2023-03-18T06:49:47;6.65;;;2.58;;
56073;SDS011;41950;55.840;37.442;2023-03-18T06:52:15;5.00;;;1.75;;
56073;SDS011;41950;55.840;37.442;2023-03-18T06:54:42;6.85;;;2.22;;
56073;SDS011;41950;55.840;37.442;2023-03-18T06:57:14;8.30;;;2.60;;
56073;SDS011;41950;55.840;37.442;2023-03-18T06:59:41;5.85;;;2.25;;
56073;SDS011;41950;55.840;37.442;2023-03-18T07:02:08;7.25;;;2.08;;
56073;SDS011;41950;55.840;37.442;2023-03-18T07:04:34;6.38;;;2.00;;
56073;SDS011;41950;55.840;37.442;2023-03-18T07:07:00;6.85;;;2.10;;
56073;SDS011;41950;55.840;37.442;2023-03-18T07:09:27;5.78;;;1.65;;
56073;SDS011;41950;55.840;37.442;2023-03-18T07:11:53;4.32;;;1.90;;
56073;SDS011;41950;55.840;37.442;2023-03-18T07:14:21;4.03;;;1.40;;
56073;SDS011;41950;55.840;37.442;2023-03-18T07:16:47;5.28;;;1.67;;
56073;SDS011;41950;55.840;37.442;2023-03-18T07:19:13;3.40;;;1.60;;
56073;SDS011;41950;55.840;37.442;2023-03-18T07:21:39;3.78;;;1.50;;
56073;SDS011;41950;55.840;37.442;2023-03-18T07:24:07;5.28;;;1.60;;
56073;SDS011;41950;55.840;37.442;2023-03-18T07:26:33;8.50;;;1.92;;
56073;SDS011;41950;55.840;37.442;2023-03-18T07:28:59;5.97;;;1.55;;
56073;SDS011;41950;55.840;37.442;2023-03-18T07:31:25;7.45;;;1.50;;
56073;SDS011;41950;55.840;37.442;2023-03-18T07:33:52;7.45;;;1.45;;
56073;SDS011;41950;55.840;37.442;2023-03-18T07:36:18;6.65;;;1.52;;
56073;SDS011;41950;55.840;37.442;2023-03-18T07:38:44;5.93;;;1.48;;
56073;SDS011;41950;55.840;37.442;2023-03-18T07:41:10;6.20;;;1.65;;
56073;SDS011;41950;55.840;37.442;2023-03-18T07:43:36;5.28;;;1.80;;
56073;SDS011;41950;55.840;37.442;2023-03-18T07:46:04;5.20;;;1.75;;
56073;SDS011;41950;55.840;37.442;2023-03-18T07:48:31;4.65;;;1.77;;
56073;SDS011;41950;55.840;37.442;2023-03-18T07:50:59;6.00;;;1.25;;
56073;SDS011;41950;55.840;37.442;2023-03-18T07:53:26;5.45;;;1.50;;
56073;SDS011;41950;55.840;37.442;2023-03-18T07:55:53;5.72;;;1.88;;
56073;SDS011;41950;55.840;37.442;2023-03-18T07:58:19;4.90;;;1.63;;
56073;SDS011;41950;55.840;37.442;2023-03-18T08:00:45;5.85;;;1.42;;
56073;SDS011;41950;55.840;37.442;2023-03-18T08:03:11;5.38;;;1.90;;
56073;SDS011;41950;55.840;37.442;2023-03-18T08:05:38;5.70;;;1.92;;
56073;SDS011;41950;55.840;37.442;2023-03-18T08:08:05;3.60;;;1.50;;
56073;SDS011;41950;55.840;37.442;2023-03-18T08:10:32;4.75;;;1.90;;
56073;SDS011;41950;55.840;37.442;2023-03-18T08:12:58;5.28;;;1.95;;
56073;SDS011;41950;55.840;37.442;2023-03-18T08:15:24;6.65;;;2.13;;
56073;SDS011;41950;55.840;37.442;2023-03-18T08:17:50;8.73;;;2.00;;
56073;SDS011;41950;55.840;37.442;2023-03-18T08:20:18;4.85;;;1.60;;
56073;SDS011;41950;55.840;37.442;2023-03-18T08:22:44;6.15;;;1.92;;
56073;SDS011;41950;55.840;37.442;2023-03-18T08:25:10;5.38;;;1.60;;
56073;SDS011;41950;55.840;37.442;2023-03-18T08:27:37;3.78;;;1.52;;
56073;SDS011;41950;55.840;37.442;2023-03-18T08:30:03;4.25;;;1.50;;
56073;SDS011;41950;55.840;37.442;2023-03-18T08:32:29;5.75;;;1.80;;
56073;SDS011;41950;55.840;37.442;2023-03-18T08:34:55;4.95;;;1.65;;
56073;SDS011;41950;55.840;37.442;2023-03-18T08:37:21;3.80;;;1.40;;
56073;SDS011;41950;55.840;37.442;2023-03-18T08:39:47;3.92;;;1.08;;
56073;SDS011;41950;55.840;37.442;2023-03-18T08:42:13;3.90;;;1.15;;
56073;SDS011;41950;55.840;37.442;2023-03-18T08:44:54;3.17;;;1.25;;
56073;SDS011;41950;55.840;37.442;2023-03-18T08:47:25;3.45;;;1.40;;
56073;SDS011;41950;55.840;37.442;2023-03-18T08:49:53;3.42;;;1.50;;
56073;SDS011;41950;55.840;37.442;2023-03-18T08:52:20;4.25;;;1.27;;
56073;SDS011;41950;55.840;37.442;2023-03-18T08:54:47;4.70;;;1.50;;
56073;SDS011;41950;55.840;37.442;2023-03-18T08:57:13;3.55;;;1.40;;
56073;SDS011;41950;55.840;37.442;2023-03-18T08:59:40;5.20;;;1.45;;
56073;SDS011;41950;55.840;37.442;2023-03-18T09:02:09;3.15;;;1.50;;
56073;SDS011;41950;55.840;37.442;2023-03-18T09:04:54;4.93;;;1.50;;
56073;SDS011;41950;55.840;37.442;2023-03-18T09:07:23;2.88;;;1.08;;
56073;SDS011;41950;55.840;37.442;2023-03-18T09:09:49;4.85;;;1.23;;
56073;SDS011;41950;55.840;37.442;2023-03-18T09:12:17;4.50;;;1.50;;
56073;SDS011;41950;55.840;37.442;2023-03-18T09:14:44;5.97;;;1.83;;
56073;SDS011;41950;55.840;37.442;2023-03-18T09:17:12;6.03;;;1.40;;
56073;SDS011;41950;55.840;37.442;2023-03-18T09:19:48;5.85;;;1.60;;
56073;SDS011;41950;55.840;37.442;2023-03-18T09:22:13;3.95;;;1.48;;
56073;SDS011;41950;55.840;37.442;2023-03-18T09:24:40;4.32;;;1.75;;
56073;SDS011;41950;55.840;37.442;2023-03-18T09:27:06;3.20;;;1.08;;
56073;SDS011;41950;55.840;37.442;2023-03-18T09:29:32;2.80;;;0.95;;
56073;SDS011;41950;55.840;37.442;2023-03-18T09:31:58;4.00;;;1.52;;
56073;SDS011;41950;55.840;37.442;2023-03-18T09:34:25;6.07;;;1.88;;
56073;SDS011;41950;55.840;37.442;2023-03-18T09:36:55;3.67;;;1.48;;
56073;SDS011;41950;55.840;37.442;2023-03-18T09:39:23;4.45;;;1.38;;
56073;SDS011;41950;55.840;37.442;2023-03-18T09:42:23;5.18;;;1.60;;
56073;SDS011;41950;55.840;37.442;2023-03-18T09:45:02;4.93;;;1.30;;
56073;SDS011;41950;55.840;37.442;2023-03-18T09:50:41;4.03;;;1.50;;
56073;SDS011;41950;55.840;37.442;2023-03-18T09:56:13;3.67;;;1.20;;
56073;SDS011;41950;55.840;37.442;2023-03-18T09:58:45;4.45;;;1.67;;
56073;SDS011;41950;55.840;37.442;2023-03-18T10:01:19;3.25;;;1.35;;
56073;SDS011;41950;55.840;37.442;2023-03-18T10:06:38;4.30;;;2.05;;
56073;SDS011;41950;55.840;37.442;2023-03-18T10:09:15;5.13;;;1.50;;
56073;SDS011;41950;55.840;37.442;2023-03-18T10:11:49;4.25;;;1.20;;
56073;SDS011;41950;55.840;37.442;2023-03-18T10:19:29;4.22;;;1.35;;
56073;SDS011;41950;55.840;37.442;2023-03-18T10:24:53;4.93;;;1.70;;
56073;SDS011;41950;55.840;37.442;2023-03-18T10:36:21;2.67;;;1.00;;
56073;SDS011;41950;55.840;37.442;2023-03-18T10:38:52;2.78;;;1.00;;
56073;SDS011;41950;55.840;37.442;2023-03-18T10:43:48;3.40;;;1.20;;
56073;SDS011;41950;55.840;37.442;2023-03-18T10:46:20;3.25;;;1.30;;
56073;SDS011;41950;55.840;37.442;2023-03-18T10:48:52;2.78;;;1.30;;
56073;SDS011;41950;55.840;37.442;2023-03-18T10:51:53;2.90;;;1.20;;
56073;SDS011;41950;55.840;37.442;2023-03-18T10:57:29;3.15;;;1.20;;
56073;SDS011;41950;55.840;37.442;2023-03-18T10:59:58;2.88;;;1.10;;
56073;SDS011;41950;55.840;37.442;2023-03-18T11:02:29;3.95;;;1.45;;
56073;SDS011;41950;55.840;37.442;2023-03-18T11:08:05;2.45;;;1.17;;
56073;SDS011;41950;55.840;37.442;2023-03-18T11:10:36;2.80;;;1.25;;
56073;SDS011;41950;55.840;37.442;2023-03-18T11:13:12;3.42;;;1.38;;
56073;SDS011;41950;55.840;37.442;2023-03-18T11:15:45;2.30;;;1.13;;
56073;SDS011;41950;55.840;37.442;2023-03-18T11:18:16;3.03;;;1.40;;
56073;SDS011;41950;55.840;37.442;2023-03-18T11:20:46;2.92;;;1.20;;
56073;SDS011;41950;55.840;37.442;2023-03-18T11:23:37;5.00;;;1.73;;
56073;SDS011;41950;55.840;37.442;2023-03-18T11:26:36;3.45;;;1.50;;
56073;SDS011;41950;55.840;37.442;2023-03-18T11:29:10;4.30;;;1.65;;
56073;SDS011;41950;55.840;37.442;2023-03-18T11:31:46;3.88;;;1.30;;
56073;SDS011;41950;55.840;37.442;2023-03-18T11:34:24;4.22;;;1.95;;
56073;SDS011;41950;55.840;37.442;2023-03-18T11:36:55;3.05;;;1.45;;
56073;SDS011;41950;55.840;37.442;2023-03-18T11:39:35;3.05;;;1.45;;
56073;SDS011;41950;55.840;37.442;2023-03-18T11:42:17;4.88;;;1.80;;
56073;SDS011;41950;55.840;37.442;2023-03-18T11:44:47;4.30;;;1.95;;
56073;SDS011;41950;55.840;37.442;2023-03-18T11:47:20;2.95;;;1.30;;
56073;SDS011;41950;55.840;37.442;2023-03-18T11:49:50;3.22;;;1.55;;
56073;SDS011;41950;55.840;37.442;2023-03-18T12:01:09;3.17;;;1.58;;
56073;SDS011;41950;55.840;37.442;2023-03-18T12:06:54;3.15;;;1.30;;
56073;SDS011;41950;55.840;37.442;2023-03-18T12:09:40;4.75;;;1.70;;
56073;SDS011;41950;55.840;37.442;2023-03-18T12:21:03;4.25;;;1.77;;
56073;SDS011;41950;55.840;37.442;2023-03-18T12:32:23;2.88;;;1.35;;
56073;SDS011;41950;55.840;37.442;2023-03-18T12:35:13;5.15;;;1.38;;
56073;SDS011;41950;55.840;37.442;2023-03-18T12:46:08;3.95;;;1.65;;
56073;SDS011;41950;55.840;37.442;2023-03-18T12:48:56;3.30;;;1.55;;
56073;SDS011;41950;55.840;37.442;2023-03-18T12:54:09;3.35;;;1.40;;
56073;SDS011;41950;55.840;37.442;2023-03-18T12:56:43;3.00;;;1.38;;
56073;SDS011;41950;55.840;37.442;2023-03-18T12:59:33;3.63;;;1.20;;
56073;SDS011;41950;55.840;37.442;2023-03-18T13:05:11;3.42;;;1.33;;
56073;SDS011;41950;55.840;37.442;2023-03-18T13:08:11;3.13;;;1.10;;
56073;SDS011;41950;55.840;37.442;2023-03-18T13:10:43;3.15;;;1.30;;
56073;SDS011;41950;55.840;37.442;2023-03-18T13:13:11;3.22;;;1.40;;
56073;SDS011;41950;55.840;37.442;2023-03-18T13:15:41;3.75;;;1.25;;
56073;SDS011;41950;55.840;37.442;2023-03-18T13:20:50;3.83;;;1.55;;
56073;SDS011;41950;55.840;37.442;2023-03-18T13:23:29;3.92;;;1.17;;
56073;SDS011;41950;55.840;37.442;2023-03-18T13:34:22;3.65;;;1.38;;
56073;SDS011;41950;55.840;37.442;2023-03-18T13:40:14;3.58;;;1.23;;
56073;SDS011;41950;55.840;37.442;2023-03-18T13:42:44;2.72;;;1.17;;
56073;SDS011;41950;55.840;37.442;2023-03-18T13:47:57;3.42;;;1.27;;
56073;SDS011;41950;55.840;37.442;2023-03-18T13:50:36;2.63;;;1.27;;
56073;SDS011;41950;55.840;37.442;2023-03-18T13:55:58;3.25;;;1.52;;
56073;SDS011;41950;55.840;37.442;2023-03-18T13:58:32;3.75;;;2.03;;
56073;SDS011;41950;55.840;37.442;2023-03-18T14:01:14;3.13;;;1.42;;
56073;SDS011;41950;55.840;37.442;2023-03-18T14:06:57;4.45;;;1.70;;
56073;SDS011;41950;55.840;37.442;2023-03-18T14:17:57;3.05;;;1.15;;
56073;SDS011;41950;55.840;37.442;2023-03-18T14:20:25;3.83;;;1.20;;
56073;SDS011;41950;55.840;37.442;2023-03-18T14:23:27;3.35;;;1.30;;
56073;SDS011;41950;55.840;37.442;2023-03-18T14:26:04;4.75;;;1.65;;
56073;SDS011;41950;55.840;37.442;2023-03-18T14:28:44;3.42;;;1.42;;
56073;SDS011;41950;55.840;37.442;2023-03-18T14:37:19;2.65;;;1.10;;
56073;SDS011;41950;55.840;37.442;2023-03-18T14:39:50;3.25;;;1.30;;
56073;SDS011;41950;55.840;37.442;2023-03-18T14:44:58;2.75;;;1.10;;
56073;SDS011;41950;55.840;37.442;2023-03-18T14:47:43;3.53;;;1.10;;
56073;SDS011;41950;55.840;37.442;2023-03-18T14:52:58;3.10;;;1.27;;
56073;SDS011;41950;55.840;37.442;2023-03-18T14:55:35;2.28;;;1.10;;
56073;SDS011;41950;55.840;37.442;2023-03-18T14:58:02;2.83;;;1.10;;
56073;SDS011;41950;55.840;37.442;2023-03-18T15:00:34;3.40;;;1.35;;
56073;SDS011;41950;55.840;37.442;2023-03-18T15:03:12;4.35;;;1.30;;
56073;SDS011;41950;55.840;37.442;2023-03-18T15:05:41;4.10;;;1.48;;
56073;SDS011;41950;55.840;37.442;2023-03-18T15:08:09;4.25;;;1.38;;
56073;SDS011;41950;55.840;37.442;2023-03-18T15:10:41;3.88;;;1.77;;
56073;SDS011;41950;55.840;37.442;2023-03-18T15:13:12;3.95;;;1.40;;
56073;SDS011;41950;55.840;37.442;2023-03-18T15:15:39;3.42;;;1.40;;
56073;SDS011;41950;55.840;37.442;2023-03-18T15:18:30;3.17;;;1.25;;
56073;SDS011;41950;55.840;37.442;2023-03-18T15:21:00;3.33;;;1.42;;
56073;SDS011;41950;55.840;37.442;2023-03-18T15:23:30;4.43;;;1.30;;
56073;SDS011;41950;55.840;37.442;2023-03-18T15:28:47;3.42;;;1.80;;
56073;SDS011;41950;55.840;37.442;2023-03-18T15:36:43;4.47;;;1.80;;
56073;SDS011;41950;55.840;37.442;2023-03-18T15:39:28;7.55;;;1.80;;
56073;SDS011;41950;55.840;37.442;2023-03-18T15:42:16;4.18;;;1.67;;
56073;SDS011;41950;55.840;37.442;2023-03-18T15:44:48;4.07;;;1.60;;
56073;SDS011;41950;55.840;37.442;2023-03-18T15:47:29;3.28;;;1.67;;
56073;SDS011;41950;55.840;37.442;2023-03-18T15:52:29;3.83;;;1.60;;
56073;SDS011;41950;55.840;37.442;2023-03-18T15:55:25;3.40;;;1.58;;
56073;SDS011;41950;55.840;37.442;2023-03-18T15:57:53;4.07;;;1.88;;
56073;SDS011;41950;55.840;37.442;2023-03-18T16:00:21;7.60;;;2.22;;
56073;SDS011;41950;55.840;37.442;2023-03-18T16:02:48;5.18;;;1.77;;
56073;SDS011;41950;55.840;37.442;2023-03-18T16:05:31;4.45;;;2.50;;
56073;SDS011;41950;55.840;37.442;2023-03-18T16:07:58;5.03;;;2.08;;
56073;SDS011;41950;55.840;37.442;2023-03-18T16:10:24;7.18;;;2.30;;
56073;SDS011;41950;55.840;37.442;2023-03-18T16:12:55;4.90;;;2.22;;
56073;SDS011;41950;55.840;37.442;2023-03-18T16:15:25;5.80;;;2.35;;
56073;SDS011;41950;55.840;37.442;2023-03-18T16:17:54;3.90;;;1.90;;
56073;SDS011;41950;55.840;37.442;2023-03-18T16:20:25;4.65;;;1.90;;
56073;SDS011;41950;55.840;37.442;2023-03-18T16:22:54;5.25;;;2.10;;
56073;SDS011;41950;55.840;37.442;2023-03-18T16:25:21;4.55;;;2.15;;
56073;SDS011;41950;55.840;37.442;2023-03-18T16:27:48;5.30;;;2.33;;
56073;SDS011;41950;55.840;37.442;2023-03-18T16:30:17;6.10;;;2.38;;
56073;SDS011;41950;55.840;37.442;2023-03-18T16:32:47;5.35;;;2.28;;
56073;SDS011;41950;55.840;37.442;2023-03-18T16:35:20;7.63;;;2.50;;
56073;SDS011;41950;55.840;37.442;2023-03-18T16:37:50;4.93;;;2.28;;
56073;SDS011;41950;55.840;37.442;2023-03-18T16:40:23;5.65;;;2.38;;
56073;SDS011;41950;55.840;37.442;2023-03-18T16:42:50;6.10;;;2.63;;
56073;SDS011;41950;55.840;37.442;2023-03-18T16:45:22;9.43;;;3.10;;
56073;SDS011;41950;55.840;37.442;2023-03-18T16:47:55;5.47;;;2.40;;
56073;SDS011;41950;55.840;37.442;2023-03-18T16:50:32;6.45;;;2.50;;
56073;SDS011;41950;55.840;37.442;2023-03-18T16:53:01;6.28;;;2.95;;
56073;SDS011;41950;55.840;37.442;2023-03-18T16:55:28;8.02;;;3.10;;
56073;SDS011;41950;55.840;37.442;2023-03-18T16:57:57;8.93;;;2.95;;
56073;SDS011;41950;55.840;37.442;2023-03-18T17:00:28;7.10;;;3.58;;
56073;SDS011;41950;55.840;37.442;2023-03-18T17:02:58;7.97;;;3.80;;
56073;SDS011;41950;55.840;37.442;2023-03-18T17:05:26;6.72;;;3.60;;
56073;SDS011;41950;55.840;37.442;2023-03-18T17:07:52;6.28;;;2.35;;